Startpagina
METAR-TAF:

METAR-TAF

Vliegvelden :

L.F. Wade International Airport

Bermuda, Bermuda

breedte: 32-22N, lengte: 064-41W, hoogte: 6 m

Actueel weer

Dit bericht is 31 minuten geleden gemaakt, om 22:55 UTC
Wind 6 kt uit het zuiden
Temperatuur 24°C
Vochtigheid 74%
Druk 1020 hPa
Zicht 10 km of meer
Weinig wolken op 2600 ft

METAR: TXKF 262255Z 18006KT 9999 FEW026 24/19 Q1020

Tijdstip: 20:26 (23:26 UTC)

Verwachting

Dit bericht is 5 uur en het 54 minuten geleden gemaakt, om 17:32 UTC
Verwachting geldig van 26 om 18 UTC tot 27 om 18 UTC
Wind 6 kt uit het zuiden
Zicht 10 km of meer
Weinig wolken op 3000 ft
Verspreide wolken op 4500 ft

TAF: TXKF 261732Z 2618/2718 19006KT 9999 FEW030 SCT045

Waarnemingen en weersverwachtingen van meer dan 4000 vliegvelden (METAR en TAF).

De beschikbare stations zijn de gele en rode punten op de kaart.

Ga met uw muis naar het station om de naam te zien.

Klik dan om waarnemingen en weersverwachtingen te zien.

kaart wijzigen: klik op de groene knoppen met een zwart kruis om in te zoomen, op de groene knop met een streepje om uit te zoomen of op de groene pijlen voor aangrenzende kaarten.


METAR-TAF: